createdAt,value
2018-11-21T00:01:38.893Z,9.40
2018-11-21T00:04:11.337Z,9.40
2018-11-21T00:06:38.563Z,9.50
2018-11-21T00:09:07.562Z,9.40
2018-11-21T00:11:35.057Z,9.40
2018-11-21T00:14:02.308Z,9.00
2018-11-21T00:16:29.630Z,8.60
2018-11-21T00:19:00.793Z,8.50
2018-11-21T00:21:25.304Z,8.40
2018-11-21T00:23:53.726Z,8.70
2018-11-21T00:26:21.044Z,8.90
2018-11-21T00:28:48.841Z,8.80
2018-11-21T00:31:16.011Z,8.80
2018-11-21T00:33:43.311Z,8.90
2018-11-21T00:36:10.588Z,9.10
2018-11-21T00:38:37.766Z,9.10
2018-11-21T00:41:05.021Z,9.00
2018-11-21T00:43:32.641Z,8.80
2018-11-21T00:46:00.584Z,8.60
2018-11-21T00:48:27.934Z,8.80
2018-11-21T00:50:55.213Z,9.00
2018-11-21T00:53:24.150Z,9.00
2018-11-21T00:55:51.561Z,9.10
2018-11-21T00:58:19.344Z,9.00
2018-11-21T01:00:46.621Z,8.90
2018-11-21T01:03:14.130Z,8.90
2018-11-21T01:05:43.243Z,9.00
2018-11-21T01:08:11.981Z,8.90
2018-11-21T01:10:39.232Z,9.00
2018-11-21T01:13:06.447Z,8.80
2018-11-21T01:15:34.692Z,8.60
2018-11-21T01:18:01.826Z,8.60
2018-11-21T01:20:32.152Z,8.60
2018-11-21T01:23:00.845Z,8.60
2018-11-21T01:25:28.212Z,8.70
2018-11-21T01:27:55.569Z,8.70
2018-11-21T01:30:22.992Z,8.70
2018-11-21T01:32:50.422Z,8.70
2018-11-21T01:35:18.252Z,8.80
2018-11-21T01:37:46.465Z,8.90
2018-11-21T01:40:14.143Z,8.80
2018-11-21T01:42:42.331Z,8.80
2018-11-21T01:45:10.077Z,8.70
2018-11-21T01:47:38.201Z,8.80
2018-11-21T01:50:06.939Z,8.30
2018-11-21T01:52:34.416Z,8.40
2018-11-21T01:55:02.707Z,8.50
2018-11-21T01:57:30.528Z,8.60
2018-11-21T01:59:58.356Z,8.70
2018-11-21T02:02:27.629Z,8.80
2018-11-21T02:04:55.521Z,8.60
2018-11-21T02:07:23.471Z,8.60
2018-11-21T02:09:50.767Z,8.60
2018-11-21T02:12:18.005Z,8.70
2018-11-21T02:14:45.649Z,8.40
2018-11-21T02:17:14.730Z,8.40
2018-11-21T02:19:41.976Z,8.20
2018-11-21T02:22:12.703Z,8.40
2018-11-21T02:24:43.268Z,8.40
2018-11-21T02:27:10.934Z,8.50
2018-11-21T02:29:38.798Z,8.50
2018-11-21T02:32:06.350Z,8.30
2018-11-21T02:34:34.860Z,8.30
2018-11-21T02:37:02.093Z,8.40
2018-11-21T02:39:29.876Z,8.50
2018-11-21T02:41:57.402Z,8.50
2018-11-21T02:46:59.901Z,8.20
2018-11-21T02:49:27.116Z,8.20
2018-11-21T02:51:54.463Z,8.30
2018-11-21T02:54:21.975Z,8.40
2018-11-21T02:57:14.850Z,8.20
2018-11-21T02:59:42.205Z,8.20
2018-11-21T03:02:09.569Z,8.40
2018-11-21T03:04:36.886Z,8.30
2018-11-21T03:07:04.315Z,8.30
2018-11-21T03:09:32.131Z,8.30
2018-11-21T03:11:59.461Z,8.00
2018-11-21T03:14:27.197Z,7.90
2018-11-21T03:16:55.620Z,8.00
2018-11-21T03:19:23.064Z,8.10
2018-11-21T03:21:50.952Z,8.20
2018-11-21T03:24:18.314Z,8.20
2018-11-21T03:26:45.525Z,8.00
2018-11-21T03:29:13.937Z,7.70
2018-11-21T03:31:41.259Z,7.90
2018-11-21T03:34:08.789Z,8.10
2018-11-21T03:36:36.286Z,8.00
2018-11-21T03:39:07.720Z,8.10
2018-11-21T03:41:34.892Z,7.70
2018-11-21T03:44:07.904Z,7.80
2018-11-21T03:46:45.796Z,7.60
2018-11-21T03:49:14.103Z,7.80
2018-11-21T03:51:42.607Z,7.80
2018-11-21T03:54:10.376Z,7.90
2018-11-21T03:56:38.242Z,7.90
2018-11-21T03:59:06.102Z,7.90
2018-11-21T04:01:33.385Z,7.90
2018-11-21T04:04:01.359Z,7.90
2018-11-21T04:06:28.950Z,7.80
2018-11-21T04:08:56.394Z,7.80
2018-11-21T04:11:23.758Z,7.70
2018-11-21T04:13:51.488Z,7.30
2018-11-21T04:16:18.909Z,7.30
2018-11-21T04:18:52.574Z,7.40
2018-11-21T04:21:21.399Z,7.50
2018-11-21T04:23:49.171Z,7.60
2018-11-21T04:26:19.318Z,7.50
2018-11-21T04:28:46.802Z,7.50
2018-11-21T04:31:14.936Z,7.60
2018-11-21T04:33:42.141Z,7.70
2018-11-21T04:36:09.406Z,7.60
2018-11-21T04:38:39.613Z,7.70
2018-11-21T04:41:08.024Z,7.70
2018-11-21T04:43:36.460Z,7.50
2018-11-21T04:48:55.404Z,7.80
2018-11-21T04:51:23.110Z,7.60
2018-11-21T04:53:50.341Z,7.60
2018-11-21T04:56:17.728Z,7.70
2018-11-21T04:58:46.184Z,7.60
2018-11-21T05:01:13.455Z,7.70
2018-11-21T05:03:57.730Z,7.60
2018-11-21T05:06:26.316Z,7.50
2018-11-21T05:08:54.170Z,7.50
2018-11-21T05:11:21.727Z,7.60
2018-11-21T05:13:50.136Z,7.70
2018-11-21T05:16:17.543Z,7.70
2018-11-21T05:18:45.645Z,7.80
2018-11-21T05:21:13.171Z,7.60
2018-11-21T05:23:40.414Z,7.60
2018-11-21T05:26:07.951Z,7.70
2018-11-21T05:28:36.698Z,7.80
2018-11-21T05:31:04.924Z,7.70
2018-11-21T05:33:36.285Z,7.40
2018-11-21T05:36:04.611Z,7.60
2018-11-21T05:38:32.521Z,7.80
2018-11-21T05:40:59.697Z,7.70
2018-11-21T05:43:38.269Z,7.80
2018-11-21T05:46:06.214Z,7.90
2018-11-21T05:48:34.147Z,7.90
2018-11-21T05:51:01.495Z,7.90
2018-11-21T05:53:28.931Z,8.00
2018-11-21T05:55:56.583Z,8.00
2018-11-21T05:58:23.961Z,8.00
2018-11-21T06:00:51.372Z,8.00
2018-11-21T06:03:19.157Z,7.90
2018-11-21T06:05:46.970Z,8.00
2018-11-21T06:08:15.137Z,7.80
2018-11-21T06:10:42.399Z,7.60
2018-11-21T06:13:09.721Z,7.40
2018-11-21T06:15:36.976Z,7.20
2018-11-21T06:18:09.339Z,7.20
2018-11-21T06:20:35.321Z,7.00
2018-11-21T06:23:02.993Z,7.10
2018-11-21T06:25:31.365Z,7.20
2018-11-21T06:27:59.415Z,7.40
2018-11-21T06:30:27.210Z,7.40
2018-11-21T06:32:59.894Z,7.50
2018-11-21T06:35:29.269Z,7.60
2018-11-21T06:37:57.751Z,7.70
2018-11-21T06:40:27.315Z,7.60
2018-11-21T06:42:57.294Z,7.40
2018-11-21T06:45:29.750Z,7.60
2018-11-21T06:47:57.070Z,7.50
2018-11-21T06:50:24.387Z,7.60
2018-11-21T06:52:52.575Z,7.60
2018-11-21T06:55:20.174Z,7.60
2018-11-21T06:57:48.029Z,7.50
2018-11-21T07:00:16.455Z,7.50
2018-11-21T07:02:44.269Z,7.70
2018-11-21T07:05:11.963Z,7.70
2018-11-21T07:07:39.883Z,7.60
2018-11-21T07:10:10.014Z,7.60
2018-11-21T07:12:37.386Z,7.60
2018-11-21T07:15:09.275Z,7.80
2018-11-21T07:17:36.699Z,7.60
2018-11-21T07:20:06.539Z,7.70
2018-11-21T07:22:33.950Z,7.70
2018-11-21T07:25:01.300Z,7.70
2018-11-21T07:27:38.375Z,7.40
2018-11-21T07:30:08.358Z,7.50
2018-11-21T07:32:36.863Z,7.60
2018-11-21T07:35:04.182Z,7.80
2018-11-21T07:37:31.415Z,7.60
2018-11-21T07:39:58.654Z,7.70
2018-11-21T07:42:27.065Z,7.70
2018-11-21T07:44:53.498Z,7.80
2018-11-21T07:47:26.573Z,7.70
2018-11-21T07:49:48.588Z,7.60
2018-11-21T07:52:15.867Z,7.50
2018-11-21T07:54:43.196Z,7.60
2018-11-21T07:57:29.349Z,7.30
2018-11-21T08:01:02.880Z,7.60
2018-11-21T08:03:32.279Z,7.80
2018-11-21T08:06:03.327Z,7.90
2018-11-21T08:08:52.716Z,7.80
2018-11-21T08:11:43.212Z,7.80
2018-11-21T08:14:23.822Z,7.90
2018-11-21T08:17:09.285Z,8.30
2018-11-21T08:19:47.140Z,8.20
2018-11-21T08:22:32.978Z,8.00
2018-11-21T08:25:15.723Z,8.10
2018-11-21T08:28:08.909Z,8.00
2018-11-21T08:30:36.196Z,8.10
2018-11-21T08:33:03.543Z,8.10
2018-11-21T08:35:32.539Z,8.00
2018-11-21T08:37:59.523Z,8.30
2018-11-21T08:40:26.751Z,8.40
2018-11-21T08:42:54.978Z,8.40
2018-11-21T08:45:22.488Z,8.20
2018-11-21T08:47:49.768Z,8.30
2018-11-21T08:50:17.765Z,8.30
2018-11-21T08:52:45.020Z,8.30
2018-11-21T08:55:12.421Z,7.80
2018-11-21T08:57:39.988Z,8.00
2018-11-21T09:00:09.954Z,8.40
2018-11-21T09:02:37.996Z,8.50
2018-11-21T09:05:08.036Z,8.60
2018-11-21T09:07:36.624Z,8.40
2018-11-21T09:10:06.640Z,8.50
2018-11-21T09:12:34.801Z,8.30
2018-11-21T09:15:11.097Z,8.50
2018-11-21T09:17:42.327Z,8.60
2018-11-21T09:20:12.290Z,8.50
2018-11-21T09:22:43.802Z,8.50
2018-11-21T09:25:11.899Z,8.50
2018-11-21T09:27:40.846Z,8.50
2018-11-21T09:30:10.598Z,8.70
2018-11-21T09:32:41.972Z,8.80
2018-11-21T09:35:11.614Z,8.60
2018-11-21T09:37:40.673Z,8.30
2018-11-21T09:40:10.459Z,8.40
2018-11-21T09:42:46.594Z,8.60
2018-11-21T09:45:16.849Z,8.70
2018-11-21T09:47:44.634Z,8.70
2018-11-21T09:50:14.908Z,9.00
2018-11-21T09:52:42.330Z,9.10
2018-11-21T09:55:11.383Z,9.00
2018-11-21T09:57:42.404Z,8.80
2018-11-21T10:00:49.179Z,8.70
2018-11-21T10:03:19.230Z,8.90
2018-11-21T10:05:52.489Z,8.60
2018-11-21T10:08:49.128Z,8.90
2018-11-21T10:11:17.434Z,8.80
2018-11-21T10:13:45.190Z,8.30
2018-11-21T10:16:14.515Z,8.40
2018-11-21T10:18:46.934Z,8.40
2018-11-21T10:21:19.026Z,8.60
2018-11-21T10:23:46.651Z,8.60
2018-11-21T10:26:13.871Z,8.40
2018-11-21T10:28:43.304Z,8.30
2018-11-21T10:31:10.836Z,8.60
2018-11-21T10:33:38.149Z,8.70
2018-11-21T10:36:06.668Z,8.60
2018-11-21T10:38:34.115Z,8.80
2018-11-21T10:41:04.197Z,8.80
2018-11-21T10:43:42.075Z,8.90
2018-11-21T10:46:09.995Z,8.60
2018-11-21T10:50:11.391Z,8.60
2018-11-21T10:52:40.633Z,9.00
2018-11-21T11:03:05.504Z,9.30
2018-11-21T11:08:33.226Z,9.00
2018-11-21T11:14:09.713Z,8.60
2018-11-21T11:24:56.955Z,9.20
2018-11-21T11:35:48.546Z,9.20
2018-11-21T11:38:36.683Z,9.60
2018-11-21T11:44:14.958Z,9.40
2018-11-21T11:49:16.364Z,9.20
2018-11-21T11:52:14.193Z,9.30
2018-11-21T11:57:38.041Z,9.40
2018-11-21T12:00:22.690Z,9.20
2018-11-21T12:03:10.446Z,9.40
2018-11-21T12:10:46.268Z,9.30
2018-11-21T12:18:41.585Z,9.00
2018-11-21T12:23:58.672Z,9.40
2018-11-21T12:26:37.680Z,8.80
2018-11-21T12:31:58.855Z,8.30
2018-11-21T12:34:46.909Z,8.70
2018-11-21T12:40:08.268Z,9.10
2018-11-21T12:45:12.758Z,9.30
2018-11-21T12:48:16.595Z,9.40
2018-11-21T12:51:28.426Z,9.40
2018-11-21T13:23:23.185Z,9.30
2018-11-21T13:26:09.876Z,9.40
2018-11-21T13:31:32.097Z,9.30
2018-11-21T13:34:22.922Z,9.70
2018-11-21T13:37:12.832Z,9.40
2018-11-21T13:39:59.409Z,9.50
2018-11-21T13:42:46.459Z,9.40
2018-11-21T13:45:16.736Z,9.20
2018-11-21T13:48:19.965Z,9.20
2018-11-21T13:50:49.938Z,9.40
2018-11-21T13:53:38.368Z,9.40
2018-11-21T14:01:22.488Z,9.00
2018-11-21T14:03:52.181Z,8.90
2018-11-21T14:06:21.455Z,8.90
2018-11-21T14:08:51.141Z,8.80
2018-11-21T14:11:20.331Z,8.80
2018-11-21T14:16:20.473Z,8.90
2018-11-21T14:18:49.990Z,8.80
2018-11-21T14:21:19.233Z,9.00
2018-11-21T14:23:50.195Z,9.50
2018-11-21T14:26:19.690Z,9.40
2018-11-21T14:28:48.780Z,9.70
2018-11-21T14:33:49.544Z,9.70
2018-11-21T14:36:19.047Z,9.80
2018-11-21T14:38:48.666Z,9.50
2018-11-21T14:41:18.937Z,9.40
2018-11-21T14:43:52.284Z,9.40
2018-11-21T14:46:22.419Z,9.40
2018-11-21T14:48:52.465Z,9.40
2018-11-21T14:54:02.695Z,9.40
2018-11-21T14:59:06.539Z,9.00
2018-11-21T15:09:32.959Z,9.40
2018-11-21T15:12:02.213Z,9.40
2018-11-21T15:14:32.916Z,9.40
2018-11-21T15:17:02.159Z,9.50
2018-11-21T15:24:32.418Z,8.70
2018-11-21T15:27:02.012Z,9.00
2018-11-21T15:29:32.460Z,9.10
2018-11-21T15:32:02.067Z,9.20
2018-11-21T15:34:31.195Z,9.30
2018-11-21T15:39:36.114Z,9.40
2018-11-21T15:42:05.645Z,9.30
2018-11-21T15:47:05.566Z,9.30
2018-11-21T15:49:34.926Z,9.60
2018-11-21T15:52:04.643Z,9.60
2018-11-21T15:54:33.746Z,9.70
2018-11-21T15:59:44.534Z,9.70
2018-11-21T16:02:13.658Z,9.90
2018-11-21T16:07:20.105Z,9.70
2018-11-21T16:12:19.980Z,9.30
2018-11-21T16:17:19.345Z,9.90
2018-11-21T16:19:49.362Z,9.50
2018-11-21T16:22:18.597Z,9.50
2018-11-21T16:24:48.018Z,9.50
2018-11-21T16:27:17.510Z,9.40
2018-11-21T16:29:46.777Z,9.70
2018-11-21T16:32:16.614Z,9.20
2018-11-21T16:34:44.395Z,9.10
2018-11-21T16:37:13.819Z,9.00
2018-11-21T16:39:43.367Z,9.30
2018-11-21T16:42:12.664Z,9.50
2018-11-21T16:44:41.890Z,9.60
2018-11-21T16:47:13.920Z,9.60
2018-11-21T16:49:43.495Z,9.70
2018-11-21T16:52:15.411Z,9.90
2018-11-21T16:57:16.968Z,9.90
2018-11-21T16:59:46.348Z,9.70
2018-11-21T17:02:15.403Z,9.70
2018-11-21T17:04:44.846Z,9.90
2018-11-21T17:09:45.997Z,9.90
2018-11-21T17:12:15.961Z,9.80
2018-11-21T17:14:45.176Z,9.80
2018-11-21T17:17:14.769Z,9.90
2018-11-21T17:19:44.057Z,10.10
2018-11-21T17:22:13.643Z,10.00
2018-11-21T17:24:43.338Z,10.00
2018-11-21T17:27:12.987Z,10.10
2018-11-21T17:29:53.674Z,9.90
2018-11-21T17:34:44.066Z,10.30
2018-11-21T17:37:13.582Z,10.20
2018-11-21T17:39:42.725Z,10.30
2018-11-21T17:42:13.343Z,10.40
2018-11-21T17:44:42.708Z,10.40
2018-11-21T17:52:28.817Z,10.20
2018-11-21T17:54:57.876Z,9.90
2018-11-21T18:05:23.184Z,10.30
2018-11-21T18:21:09.331Z,10.20
2018-11-21T18:31:34.806Z,10.60
2018-11-21T18:34:04.044Z,10.50
2018-11-21T18:39:14.364Z,10.50
2018-11-21T18:41:44.782Z,10.50
2018-11-21T19:08:07.123Z,10.50
2018-11-21T19:40:02.187Z,10.60
2018-11-21T19:45:14.834Z,10.70
2018-11-21T19:47:44.135Z,10.90
2018-11-21T20:30:23.345Z,10.80
2018-11-21T20:35:34.330Z,11.00
2018-11-21T20:38:03.871Z,11.00
2018-11-21T20:50:56.471Z,10.90
2018-11-21T20:53:25.546Z,11.10
2018-11-21T20:55:54.807Z,11.10
2018-11-21T20:58:23.853Z,11.10
2018-11-21T21:00:52.922Z,10.90
2018-11-21T21:03:22.450Z,11.10
2018-11-21T21:11:11.739Z,10.90
2018-11-21T21:16:14.090Z,10.90
2018-11-21T21:21:20.619Z,10.70
2018-11-21T21:26:21.378Z,10.80
2018-11-21T21:28:52.738Z,10.80
2018-11-21T21:31:22.338Z,10.80
2018-11-21T21:33:52.111Z,11.10
2018-11-21T21:36:22.143Z,11.00
2018-11-21T21:41:33.913Z,11.10
2018-11-21T21:46:34.730Z,11.10
2018-11-21T21:49:05.147Z,11.20
2018-11-21T21:51:34.276Z,11.10
2018-11-21T21:56:46.331Z,11.00
2018-11-21T21:59:13.108Z,11.10
2018-11-21T22:01:42.360Z,10.80
2018-11-21T22:04:11.394Z,10.90
2018-11-21T22:09:13.615Z,10.90
2018-11-21T22:11:43.005Z,11.10
2018-11-21T22:16:49.405Z,10.90
2018-11-21T22:19:18.474Z,11.10
2018-11-21T22:21:47.786Z,11.00
2018-11-21T22:24:17.761Z,11.10
2018-11-21T22:29:17.221Z,11.10
2018-11-21T22:34:13.145Z,11.00
2018-11-21T22:41:49.191Z,11.00
2018-11-21T22:44:18.473Z,11.00
2018-11-21T22:51:52.977Z,10.80
2018-11-21T22:54:22.145Z,11.00
2018-11-21T22:56:51.537Z,11.00
2018-11-21T23:01:52.796Z,11.00
2018-11-21T23:04:21.880Z,11.10
2018-11-21T23:06:50.875Z,11.10
2018-11-21T23:09:20.080Z,11.10
2018-11-21T23:11:49.483Z,11.00
2018-11-21T23:19:25.346Z,11.10
2018-11-21T23:21:55.181Z,11.00
2018-11-21T23:24:24.168Z,10.90
2018-11-21T23:26:53.529Z,10.90
2018-11-21T23:31:54.965Z,10.80
2018-11-21T23:34:23.965Z,10.80
2018-11-21T23:36:53.014Z,10.90
2018-11-21T23:39:22.128Z,10.80
2018-11-21T23:41:51.100Z,10.80
2018-11-21T23:44:20.115Z,10.80
2018-11-21T23:52:08.126Z,10.70
2018-11-21T23:54:38.426Z,10.80
2018-11-21T23:57:16.092Z,10.70
2018-11-21T23:59:36.677Z,10.80
